THY35 LTAI-LTFM
Flight info
| Callsign | THY35 |
|---|---|
| Flight time | N/A |
| Altitude | 38000 |
| Route | EKSEN UM855 SISPI |
| Aircraft | B772/H-SDE2E3FGHIJ5LORVWXY/AA6BA4 |
Departure
| Time | 2026-05-05 22:21 |
|---|---|
| Airport | Antalya International Airport (LTAI) |
Arrival
| Time | N/A |
|---|---|
| Airport | İstanbul Airport (LTFM) |
| Time | Latitude | Longitude | Altitude | Speed | Heading |
|---|---|---|---|---|---|
| 2026-05-05 22:11 | 36.91260 | 30.79983 | 175 ft | 2 kts | 145° |
| 2026-05-05 22:11 | 36.91273 | 30.79976 | 175 ft | 2 kts | 173° |
| 2026-05-05 22:12 | 36.91282 | 30.79975 | 175 ft | 1 kts | 187° |
| 2026-05-05 22:12 | 36.91285 | 30.79976 | 175 ft | 0 kts | 186° |
| 2026-05-05 22:13 | 36.91275 | 30.79974 | 175 ft | 3 kts | 186° |
| 2026-05-05 22:13 | 36.91237 | 30.79969 | 175 ft | 7 kts | 186° |
| 2026-05-05 22:14 | 36.91170 | 30.79956 | 174 ft | 11 kts | 197° |
| 2026-05-05 22:14 | 36.91080 | 30.79930 | 173 ft | 15 kts | 189° |
| 2026-05-05 22:14 | 36.90968 | 30.79912 | 175 ft | 16 kts | 187° |
| 2026-05-05 22:14 | 36.90877 | 30.79896 | 176 ft | 12 kts | 203° |
| 2026-05-05 22:15 | 36.90869 | 30.79792 | 175 ft | 14 kts | 275° |
| 2026-05-05 22:15 | 36.90881 | 30.79657 | 175 ft | 16 kts | 269° |
| 2026-05-05 22:15 | 36.90802 | 30.79582 | 177 ft | 16 kts | 182° |
| 2026-05-05 22:15 | 36.90686 | 30.79573 | 179 ft | 17 kts | 185° |
| 2026-05-05 22:16 | 36.90562 | 30.79560 | 181 ft | 18 kts | 185° |
| 2026-05-05 22:16 | 36.90434 | 30.79538 | 183 ft | 19 kts | 187° |
| 2026-05-05 22:16 | 36.90313 | 30.79523 | 183 ft | 13 kts | 186° |
| 2026-05-05 22:16 | 36.90211 | 30.79509 | 183 ft | 16 kts | 187° |
| 2026-05-05 22:17 | 36.90137 | 30.79497 | 183 ft | 10 kts | 186° |
| 2026-05-05 22:17 | 36.90051 | 30.79487 | 183 ft | 13 kts | 185° |
| 2026-05-05 22:17 | 36.89948 | 30.79471 | 183 ft | 15 kts | 187° |
| 2026-05-05 22:17 | 36.89828 | 30.79454 | 183 ft | 18 kts | 186° |
| 2026-05-05 22:18 | 36.89694 | 30.79436 | 183 ft | 20 kts | 186° |
| 2026-05-05 22:18 | 36.89546 | 30.79415 | 183 ft | 22 kts | 186° |
| 2026-05-05 22:18 | 36.89385 | 30.79394 | 183 ft | 24 kts | 186° |
| 2026-05-05 22:18 | 36.89209 | 30.79370 | 183 ft | 26 kts | 184° |
| 2026-05-05 22:19 | 36.89075 | 30.79352 | 183 ft | 16 kts | 186° |
| 2026-05-05 22:19 | 36.88954 | 30.79336 | 183 ft | 18 kts | 186° |
| 2026-05-05 22:19 | 36.88816 | 30.79316 | 183 ft | 20 kts | 186° |
| 2026-05-05 22:19 | 36.88665 | 30.79296 | 183 ft | 22 kts | 186° |
| 2026-05-05 22:20 | 36.88533 | 30.79262 | 183 ft | 16 kts | 223° |
| 2026-05-05 22:20 | 36.88514 | 30.79118 | 183 ft | 13 kts | 277° |
| 2026-05-05 22:20 | 36.88588 | 30.79072 | 183 ft | 6 kts | 3° |
| 2026-05-05 22:20 | 36.88653 | 30.79078 | 183 ft | 37 kts | 5° |
| 2026-05-05 22:21 | 36.89194 | 30.79151 | 183 ft | 114 kts | 7° |
| 2026-05-05 22:21 | 36.90179 | 30.79274 | 237 ft | 164 kts | 5° |
| 2026-05-05 22:21 | 36.91298 | 30.79392 | 882 ft | 166 kts | 4° |
| 2026-05-05 22:21 | 36.92438 | 30.79452 | 1708 ft | 164 kts | 1° |
| 2026-05-05 22:22 | 36.93581 | 30.79209 | 2145 ft | 176 kts | 344° |
| 2026-05-05 22:22 | 36.94833 | 30.78860 | 2550 ft | 191 kts | 352° |
| 2026-05-05 22:22 | 36.96199 | 30.78618 | 2993 ft | 206 kts | 353° |
| 2026-05-05 22:22 | 36.97682 | 30.78363 | 3434 ft | 221 kts | 352° |
| 2026-05-05 22:23 | 36.99253 | 30.78087 | 3861 ft | 237 kts | 352° |
| 2026-05-05 22:23 | 37.00938 | 30.77755 | 4284 ft | 253 kts | 350° |
| 2026-05-05 22:23 | 37.02693 | 30.77375 | 4886 ft | 260 kts | 350° |
| 2026-05-05 22:23 | 37.04481 | 30.76993 | 5623 ft | 261 kts | 351° |
| 2026-05-05 22:24 | 37.06278 | 30.76614 | 6320 ft | 264 kts | 351° |
| 2026-05-05 22:24 | 37.08084 | 30.76233 | 7111 ft | 261 kts | 350° |
| 2026-05-05 22:24 | 37.09876 | 30.75856 | 7784 ft | 264 kts | 350° |
| 2026-05-05 22:24 | 37.11694 | 30.75473 | 8425 ft | 267 kts | 349° |
| 2026-05-05 22:25 | 37.13531 | 30.75114 | 9118 ft | 268 kts | 351° |
| 2026-05-05 22:25 | 37.15384 | 30.74774 | 9719 ft | 271 kts | 350° |
| 2026-05-05 22:25 | 37.17251 | 30.74428 | 10293 ft | 276 kts | 350° |
| 2026-05-05 22:25 | 37.19204 | 30.74061 | 10563 ft | 293 kts | 350° |
| 2026-05-05 22:26 | 37.21278 | 30.73671 | 10822 ft | 309 kts | 350° |
| 2026-05-05 22:26 | 37.23479 | 30.73257 | 11089 ft | 325 kts | 350° |
| 2026-05-05 22:26 | 37.25742 | 30.72831 | 11367 ft | 340 kts | 350° |
| 2026-05-05 22:26 | 37.28131 | 30.72381 | 11655 ft | 354 kts | 350° |
| 2026-05-05 22:27 | 37.30630 | 30.71916 | 12088 ft | 365 kts | 351° |
| 2026-05-05 22:27 | 37.33149 | 30.71449 | 12734 ft | 369 kts | 351° |
| 2026-05-05 22:27 | 37.35685 | 30.70979 | 13466 ft | 371 kts | 351° |
| 2026-05-05 22:27 | 37.38273 | 30.70499 | 14227 ft | 375 kts | 350° |
| 2026-05-05 22:28 | 37.40862 | 30.70125 | 15012 ft | 379 kts | 355° |
| 2026-05-05 22:28 | 37.43526 | 30.69936 | 15851 ft | 383 kts | 355° |
| 2026-05-05 22:28 | 37.46167 | 30.69762 | 16662 ft | 387 kts | 355° |
| 2026-05-05 22:28 | 37.48870 | 30.69583 | 17464 ft | 390 kts | 355° |
| 2026-05-05 22:29 | 37.51575 | 30.69402 | 18250 ft | 394 kts | 355° |
| 2026-05-05 22:29 | 37.54332 | 30.69217 | 19006 ft | 398 kts | 355° |
| 2026-05-05 22:29 | 37.57106 | 30.69031 | 19733 ft | 403 kts | 355° |
| 2026-05-05 22:29 | 37.59940 | 30.68847 | 20477 ft | 407 kts | 356° |
| 2026-05-05 22:30 | 37.62764 | 30.68672 | 21224 ft | 410 kts | 356° |
| 2026-05-05 22:30 | 37.65607 | 30.68495 | 21919 ft | 414 kts | 356° |
| 2026-05-05 22:30 | 37.68517 | 30.68314 | 22579 ft | 419 kts | 356° |
| 2026-05-05 22:30 | 37.71428 | 30.68132 | 23213 ft | 423 kts | 356° |
| 2026-05-05 22:31 | 37.74397 | 30.67947 | 23848 ft | 428 kts | 356° |
| 2026-05-05 22:31 | 37.77381 | 30.67760 | 24458 ft | 432 kts | 356° |
| 2026-05-05 22:31 | 37.80388 | 30.67571 | 25077 ft | 436 kts | 356° |
| 2026-05-05 22:31 | 37.83021 | 30.67406 | 25605 ft | 439 kts | 356° |
| 2026-05-05 22:32 | 37.86082 | 30.67214 | 26232 ft | 442 kts | 356° |
| 2026-05-05 22:32 | 37.92612 | 30.66626 | 27442 ft | 448 kts | 352° |